createdAt,value
2018-02-21T00:01:12.457Z,4.90
2018-02-21T00:03:40.747Z,5.00
2018-02-21T00:06:09.071Z,4.93
2018-02-21T00:08:37.385Z,5.37
2018-02-21T00:11:05.680Z,4.50
2018-02-21T00:13:34.034Z,4.93
2018-02-21T00:16:02.480Z,5.97
2018-02-21T00:18:30.756Z,4.80
2018-02-21T00:20:59.053Z,4.53
2018-02-21T00:23:27.341Z,5.00
2018-02-21T00:25:55.632Z,4.03
2018-02-21T00:28:23.932Z,6.20
2018-02-21T00:30:52.221Z,4.87
2018-02-21T00:33:20.520Z,4.57
2018-02-21T00:35:48.807Z,4.80
2018-02-21T00:38:17.086Z,5.50
2018-02-21T00:40:45.397Z,4.17
2018-02-21T00:43:14.636Z,4.23
2018-02-21T00:45:42.925Z,4.53
2018-02-21T00:48:11.292Z,4.20
2018-02-21T00:50:39.577Z,4.10
2018-02-21T00:53:07.867Z,4.97
2018-02-21T00:55:36.199Z,4.03
2018-02-21T00:58:04.486Z,4.10
2018-02-21T01:00:32.792Z,3.90
2018-02-21T01:03:01.104Z,4.10
2018-02-21T01:05:29.425Z,4.00
2018-02-21T01:07:57.752Z,4.30
2018-02-21T01:10:26.205Z,4.30
2018-02-21T01:12:54.513Z,4.70
2018-02-21T01:15:22.800Z,4.80
2018-02-21T01:17:51.106Z,3.70
2018-02-21T01:20:19.393Z,4.10
2018-02-21T01:22:47.678Z,4.17
2018-02-21T01:25:15.990Z,4.37
2018-02-21T01:27:44.286Z,5.03
2018-02-21T01:30:12.591Z,5.80
2018-02-21T01:32:40.902Z,4.17
2018-02-21T01:35:09.195Z,3.67
2018-02-21T01:37:37.505Z,3.93
2018-02-21T01:40:05.795Z,3.43
2018-02-21T01:42:34.107Z,3.67
2018-02-21T01:45:02.397Z,3.87
2018-02-21T01:47:30.699Z,4.33
2018-02-21T01:49:59.002Z,5.50
2018-02-21T01:52:27.320Z,6.27
2018-02-21T01:54:55.640Z,6.13
2018-02-21T01:57:23.939Z,4.37
2018-02-21T01:59:52.238Z,3.50
2018-02-21T02:02:20.554Z,6.23
2018-02-21T02:04:48.969Z,6.23
2018-02-21T02:07:17.289Z,4.83
2018-02-21T02:09:45.575Z,4.67
2018-02-21T02:12:13.878Z,4.97
2018-02-21T02:14:42.167Z,3.67
2018-02-21T02:17:10.460Z,4.03
2018-02-21T02:19:38.755Z,5.00
2018-02-21T02:22:07.067Z,4.50
2018-02-21T02:24:35.350Z,4.63
2018-02-21T02:27:03.627Z,3.30
2018-02-21T02:29:31.918Z,5.13
2018-02-21T02:32:00.200Z,3.40
2018-02-21T02:34:28.558Z,6.23
2018-02-21T02:36:57.098Z,8.13
2018-02-21T02:39:36.633Z,8.00
2018-02-21T02:42:04.919Z,4.67
2018-02-21T02:44:33.219Z,5.20
2018-02-21T02:47:01.511Z,5.63
2018-02-21T02:49:29.805Z,5.50
2018-02-21T02:51:58.101Z,7.23
2018-02-21T02:54:26.437Z,7.30
2018-02-21T02:56:54.762Z,6.53
2018-02-21T02:59:23.062Z,6.43
2018-02-21T03:01:51.372Z,10.23
2018-02-21T03:04:19.700Z,5.63
2018-02-21T03:06:48.035Z,5.63
2018-02-21T03:09:16.319Z,5.17
2018-02-21T03:11:44.620Z,5.30
2018-02-21T03:14:12.900Z,5.90
2018-02-21T03:16:41.194Z,6.27
2018-02-21T03:19:09.511Z,12.00
2018-02-21T03:21:37.798Z,9.33
2018-02-21T03:24:06.111Z,8.40
2018-02-21T03:26:34.481Z,7.60
2018-02-21T03:29:02.786Z,8.23
2018-02-21T03:31:31.087Z,9.10
2018-02-21T03:33:59.381Z,9.30
2018-02-21T03:36:27.718Z,9.00
2018-02-21T03:38:56.024Z,12.23
2018-02-21T03:41:24.328Z,13.23
2018-02-21T03:43:52.644Z,11.80
2018-02-21T03:46:20.933Z,9.83
2018-02-21T03:48:49.235Z,11.57
2018-02-21T03:51:17.544Z,12.83
2018-02-21T03:53:45.846Z,12.53
2018-02-21T03:56:14.167Z,11.90
2018-02-21T03:58:42.461Z,12.20
2018-02-21T04:01:10.768Z,11.40
2018-02-21T04:03:39.061Z,11.03
2018-02-21T04:06:07.402Z,13.40
2018-02-21T04:08:35.706Z,11.63
2018-02-21T04:11:04.030Z,11.67
2018-02-21T04:13:32.332Z,11.60
2018-02-21T04:16:00.636Z,13.33
2018-02-21T04:18:30.536Z,17.17
2018-02-21T04:20:58.831Z,25.00
2018-02-21T04:23:27.134Z,21.07
2018-02-21T04:25:55.425Z,23.07
2018-02-21T04:28:23.733Z,29.43
2018-02-21T04:30:52.141Z,20.00
2018-02-21T04:33:20.460Z,24.57
2018-02-21T04:35:48.768Z,20.23
2018-02-21T04:38:17.071Z,26.07
2018-02-21T04:40:45.190Z,18.73
2018-02-21T04:43:13.504Z,25.37
2018-02-21T04:45:41.802Z,21.93
2018-02-21T04:48:10.121Z,21.43
2018-02-21T04:50:38.194Z,19.83
2018-02-21T04:53:06.303Z,6.20
2018-02-21T04:55:40.116Z,6.33
2018-02-21T04:58:13.796Z,6.53
2018-02-21T05:00:41.950Z,11.47
2018-02-21T05:03:10.262Z,11.33
2018-02-21T05:05:38.573Z,8.07
2018-02-21T05:08:06.885Z,11.57
2018-02-21T05:10:35.180Z,8.67
2018-02-21T05:13:03.517Z,10.53
2018-02-21T05:15:31.818Z,9.93
2018-02-21T05:18:00.120Z,9.03
2018-02-21T05:20:28.414Z,9.33
2018-02-21T05:22:56.695Z,9.03
2018-02-21T05:25:25.031Z,9.03
2018-02-21T05:27:53.328Z,6.47
2018-02-21T05:30:21.623Z,9.63
2018-02-21T05:32:49.917Z,7.20
2018-02-21T05:35:18.215Z,4.90
2018-02-21T05:37:46.513Z,9.83
2018-02-21T05:40:14.813Z,6.83
2018-02-21T05:42:43.125Z,6.70
2018-02-21T05:45:11.429Z,5.13
2018-02-21T05:47:39.750Z,6.03
2018-02-21T05:50:08.052Z,7.10
2018-02-21T05:52:36.348Z,5.37
2018-02-21T05:55:04.665Z,4.73
2018-02-21T05:57:32.948Z,4.80
2018-02-21T06:00:01.241Z,5.23
2018-02-21T06:02:29.567Z,4.00
2018-02-21T06:04:57.859Z,5.07
2018-02-21T06:07:26.178Z,4.83
2018-02-21T06:09:54.487Z,5.10
2018-02-21T06:12:22.798Z,6.07
2018-02-21T06:14:51.098Z,4.03
2018-02-21T06:17:19.392Z,4.13
2018-02-21T06:19:47.713Z,4.30
2018-02-21T06:22:16.019Z,3.83
2018-02-21T06:24:44.311Z,6.57
2018-02-21T06:27:12.944Z,3.83
2018-02-21T06:29:41.255Z,4.13
2018-02-21T06:32:09.600Z,3.60
2018-02-21T06:34:37.917Z,3.60
2018-02-21T06:37:06.311Z,4.30
2018-02-21T06:39:34.820Z,3.50
2018-02-21T06:42:03.123Z,3.40
2018-02-21T06:44:31.444Z,4.20
2018-02-21T06:46:59.735Z,3.40
2018-02-21T06:49:28.055Z,4.17
2018-02-21T06:51:56.542Z,4.07
2018-02-21T06:54:24.840Z,3.57
2018-02-21T06:56:53.135Z,2.70
2018-02-21T06:59:22.025Z,2.83
2018-02-21T07:01:50.338Z,2.90
2018-02-21T07:04:18.640Z,4.07
2018-02-21T07:06:46.964Z,3.20
2018-02-21T07:09:15.311Z,3.40
2018-02-21T07:11:43.608Z,3.23
2018-02-21T07:14:11.945Z,2.63
2018-02-21T07:16:40.247Z,3.20
2018-02-21T07:19:08.601Z,3.10
2018-02-21T07:21:37.722Z,2.77
2018-02-21T07:24:06.028Z,3.00
2018-02-21T07:26:34.350Z,3.00
2018-02-21T07:29:02.655Z,3.93
2018-02-21T07:31:30.942Z,3.73
2018-02-21T07:33:59.239Z,3.20
2018-02-21T07:36:27.544Z,3.13
2018-02-21T07:38:55.835Z,3.20
2018-02-21T07:41:27.355Z,2.93
2018-02-21T07:43:55.638Z,2.77
2018-02-21T07:46:23.947Z,3.40
2018-02-21T07:48:52.233Z,3.23
2018-02-21T07:51:20.743Z,2.60
2018-02-21T07:53:49.076Z,2.70
2018-02-21T07:56:17.394Z,2.70
2018-02-21T07:58:45.697Z,2.80
2018-02-21T08:01:14.009Z,4.60
2018-02-21T08:03:42.333Z,3.40
2018-02-21T08:06:10.627Z,2.90
2018-02-21T08:08:38.927Z,3.37
2018-02-21T08:11:07.209Z,2.83
2018-02-21T08:13:35.802Z,3.47
2018-02-21T08:16:04.103Z,3.10
2018-02-21T08:18:32.388Z,2.80
2018-02-21T08:21:00.690Z,2.73
2018-02-21T08:23:28.995Z,2.50
2018-02-21T08:25:57.304Z,2.60
2018-02-21T08:28:25.601Z,2.83
2018-02-21T08:30:53.907Z,3.70
2018-02-21T08:33:22.193Z,3.40
2018-02-21T08:35:50.486Z,2.70
2018-02-21T08:38:18.771Z,2.90
2018-02-21T08:40:47.056Z,2.93
2018-02-21T08:43:15.365Z,2.70
2018-02-21T08:45:43.667Z,4.13
2018-02-21T08:48:11.975Z,3.20
2018-02-21T08:50:40.267Z,2.63
2018-02-21T08:53:08.589Z,3.00
2018-02-21T08:55:36.871Z,4.13
2018-02-21T08:58:05.187Z,3.37
2018-02-21T09:00:33.505Z,3.03
2018-02-21T09:03:01.810Z,2.97
2018-02-21T09:05:30.130Z,2.80
2018-02-21T09:07:58.417Z,2.87
2018-02-21T09:10:26.799Z,2.90
2018-02-21T09:12:55.099Z,2.90
2018-02-21T09:15:23.399Z,3.00
2018-02-21T09:17:51.734Z,3.40
2018-02-21T09:20:20.041Z,3.13
2018-02-21T09:22:48.340Z,3.23
2018-02-21T09:25:16.653Z,3.50
2018-02-21T09:27:44.932Z,3.20
2018-02-21T09:30:13.248Z,2.93
2018-02-21T09:32:41.548Z,4.07
2018-02-21T09:35:09.853Z,3.37
2018-02-21T09:37:38.150Z,2.97
2018-02-21T09:40:06.439Z,3.10
2018-02-21T09:42:34.728Z,2.80
2018-02-21T09:45:03.044Z,3.20
2018-02-21T09:47:31.361Z,2.50
2018-02-21T09:49:59.647Z,5.27
2018-02-21T09:52:27.933Z,2.93
2018-02-21T09:54:56.332Z,14.27
2018-02-21T09:57:24.785Z,5.10
2018-02-21T09:59:53.086Z,5.10
2018-02-21T10:02:21.371Z,7.97
2018-02-21T10:05:01.498Z,7.30
2018-02-21T10:07:29.804Z,8.67
2018-02-21T10:09:58.160Z,8.43
2018-02-21T10:12:26.491Z,8.87
2018-02-21T10:14:54.788Z,8.67
2018-02-21T10:17:23.101Z,22.73
2018-02-21T10:19:51.516Z,14.17
2018-02-21T10:22:19.814Z,13.07
2018-02-21T10:24:48.104Z,8.13
2018-02-21T10:27:16.445Z,9.50
2018-02-21T10:29:44.744Z,7.17
2018-02-21T10:32:13.109Z,7.90
2018-02-21T10:34:41.443Z,7.83
2018-02-21T10:37:09.756Z,9.10
2018-02-21T10:39:38.141Z,6.63
2018-02-21T10:42:06.438Z,8.30
2018-02-21T10:44:34.797Z,6.47
2018-02-21T10:47:03.104Z,36.43
2018-02-21T10:49:31.437Z,22.13
2018-02-21T10:51:59.729Z,15.90
2018-02-21T10:54:28.035Z,16.07
2018-02-21T10:56:56.349Z,9.93
2018-02-21T10:59:24.647Z,9.40
2018-02-21T11:01:52.956Z,8.47
2018-02-21T11:04:21.249Z,8.97
2018-02-21T11:06:49.590Z,7.17
2018-02-21T11:09:17.974Z,7.67
2018-02-21T11:11:46.265Z,8.83
2018-02-21T11:14:14.592Z,8.80
2018-02-21T11:16:42.897Z,7.87
2018-02-21T11:19:11.207Z,7.80
2018-02-21T11:21:39.518Z,7.17
2018-02-21T11:24:07.833Z,7.40
2018-02-21T11:26:36.141Z,6.73
2018-02-21T11:29:04.441Z,7.20
2018-02-21T11:31:32.741Z,7.83
2018-02-21T11:34:01.054Z,7.30
2018-02-21T11:36:29.347Z,6.60
2018-02-21T11:38:57.636Z,7.10
2018-02-21T11:41:25.931Z,6.63
2018-02-21T11:43:54.284Z,14.90
2018-02-21T11:46:22.568Z,6.50
2018-02-21T11:48:50.896Z,7.33
2018-02-21T11:51:19.200Z,6.47
2018-02-21T11:53:47.497Z,7.13
2018-02-21T11:56:15.832Z,7.03
2018-02-21T11:58:44.180Z,7.27
2018-02-21T12:01:12.611Z,6.17
2018-02-21T12:03:40.917Z,6.03
2018-02-21T12:06:09.243Z,6.37
2018-02-21T12:08:37.540Z,6.37
2018-02-21T12:11:06.148Z,6.90
2018-02-21T12:13:34.534Z,5.70
2018-02-21T12:16:02.869Z,8.57
2018-02-21T12:18:31.335Z,6.40
2018-02-21T12:20:59.642Z,6.33
2018-02-21T12:23:27.936Z,5.73
2018-02-21T12:25:56.239Z,5.53
2018-02-21T12:28:24.569Z,7.90
2018-02-21T12:30:52.710Z,6.70
2018-02-21T12:33:21.124Z,8.10
2018-02-21T12:35:49.434Z,8.27
2018-02-21T12:38:17.726Z,13.03
2018-02-21T12:40:51.411Z,27.70
2018-02-21T12:43:19.734Z,20.90
2018-02-21T12:45:48.044Z,26.20
2018-02-21T12:48:16.351Z,17.47
2018-02-21T12:50:44.730Z,17.07
2018-02-21T12:53:13.076Z,14.97
2018-02-21T12:55:41.549Z,13.73
2018-02-21T12:58:09.871Z,15.03
2018-02-21T13:00:38.166Z,15.03
2018-02-21T13:03:06.574Z,13.30
2018-02-21T13:05:34.865Z,13.70
2018-02-21T13:08:03.199Z,16.20
2018-02-21T13:10:31.490Z,12.73
2018-02-21T13:12:59.790Z,16.47
2018-02-21T13:15:28.098Z,13.57
2018-02-21T13:17:56.418Z,13.07
2018-02-21T13:20:24.833Z,11.43
2018-02-21T13:22:53.141Z,12.60
2018-02-21T13:25:21.436Z,11.87
2018-02-21T13:27:49.888Z,12.27
2018-02-21T13:30:18.196Z,12.13
2018-02-21T13:32:46.552Z,11.30
2018-02-21T13:35:14.854Z,11.80
2018-02-21T13:37:43.180Z,12.77
2018-02-21T13:40:11.527Z,10.73
2018-02-21T13:42:39.865Z,12.90
2018-02-21T13:45:08.187Z,12.43
2018-02-21T13:47:48.273Z,10.73
2018-02-21T13:50:16.583Z,10.43
2018-02-21T13:52:44.879Z,10.30
2018-02-21T13:55:13.199Z,10.10
2018-02-21T13:57:41.668Z,10.17
2018-02-21T14:00:09.987Z,9.77
2018-02-21T14:02:38.295Z,9.93
2018-02-21T14:05:06.601Z,11.00
2018-02-21T14:07:35.149Z,9.37
2018-02-21T14:10:03.462Z,8.57
2018-02-21T14:12:31.795Z,9.23
2018-02-21T14:15:00.091Z,9.40
2018-02-21T14:17:28.427Z,9.37
2018-02-21T14:19:56.928Z,9.33
2018-02-21T14:22:25.232Z,8.40
2018-02-21T14:24:53.518Z,9.03
2018-02-21T14:27:21.813Z,9.37
2018-02-21T14:29:50.103Z,8.77
2018-02-21T14:32:18.512Z,9.63
2018-02-21T14:34:46.792Z,8.47
2018-02-21T14:37:15.167Z,8.30
2018-02-21T14:39:43.455Z,8.37
2018-02-21T14:42:12.274Z,8.13
2018-02-21T14:44:40.578Z,8.57
2018-02-21T14:47:08.889Z,13.87
2018-02-21T14:49:37.183Z,14.30
2018-02-21T14:52:06.128Z,15.80
2018-02-21T14:54:34.457Z,17.53
2018-02-21T14:57:02.815Z,19.20
2018-02-21T14:59:31.179Z,18.83
2018-02-21T15:01:59.560Z,20.07
2018-02-21T15:04:27.870Z,20.67
2018-02-21T15:06:56.175Z,19.03
2018-02-21T15:09:24.491Z,18.80
2018-02-21T15:11:52.825Z,18.20
2018-02-21T15:14:21.301Z,19.73
2018-02-21T15:16:49.610Z,18.50
2018-02-21T15:19:17.914Z,22.23
2018-02-21T15:21:46.211Z,21.30
2018-02-21T15:24:14.509Z,18.27
2018-02-21T15:26:42.818Z,18.93
2018-02-21T15:29:11.148Z,18.63
2018-02-21T15:31:39.456Z,19.43
2018-02-21T15:34:07.772Z,19.07
2018-02-21T15:36:36.087Z,20.47
2018-02-21T15:39:03.800Z,16.83
2018-02-21T15:41:32.097Z,17.87
2018-02-21T15:44:00.467Z,18.13
2018-02-21T15:46:28.780Z,17.77
2018-02-21T15:48:57.076Z,17.13
2018-02-21T15:51:25.392Z,17.77
2018-02-21T15:53:53.689Z,19.67
2018-02-21T15:56:22.013Z,18.47
2018-02-21T15:58:50.359Z,16.93
2018-02-21T16:01:18.698Z,17.50
2018-02-21T16:03:46.857Z,71.73
2018-02-21T16:06:15.178Z,29.70
2018-02-21T16:08:43.519Z,25.47
2018-02-21T16:11:11.851Z,29.10
2018-02-21T16:13:40.149Z,22.70
2018-02-21T16:16:08.655Z,26.03
2018-02-21T16:18:36.990Z,19.37
2018-02-21T16:21:05.117Z,28.00
2018-02-21T16:23:33.453Z,23.63
2018-02-21T16:26:01.812Z,18.50
2018-02-21T16:28:30.115Z,19.30
2018-02-21T16:30:58.445Z,17.93
2018-02-21T16:33:26.763Z,18.90
2018-02-21T16:35:55.101Z,20.33
2018-02-21T16:38:23.416Z,20.50
2018-02-21T16:40:51.768Z,17.40
2018-02-21T16:43:20.106Z,19.67
2018-02-21T16:45:48.427Z,18.57
2018-02-21T16:48:16.726Z,14.03
2018-02-21T16:50:45.172Z,16.87
2018-02-21T16:53:13.479Z,18.57
2018-02-21T16:55:41.809Z,17.40
2018-02-21T16:58:10.106Z,19.93
2018-02-21T17:00:38.467Z,24.00
2018-02-21T17:03:06.929Z,19.37
2018-02-21T17:05:35.229Z,20.33
2018-02-21T17:08:03.518Z,19.33
2018-02-21T17:10:31.838Z,21.00
2018-02-21T17:13:00.130Z,19.77
2018-02-21T17:15:28.430Z,18.87
2018-02-21T17:17:56.745Z,18.27
2018-02-21T17:20:25.070Z,20.97
2018-02-21T17:22:53.415Z,22.33
2018-02-21T17:25:21.734Z,19.37
2018-02-21T17:27:50.030Z,21.10
2018-02-21T17:30:18.344Z,19.23
2018-02-21T17:32:46.652Z,16.70
2018-02-21T17:35:15.019Z,16.87
2018-02-21T17:37:44.057Z,16.97
2018-02-21T17:40:12.378Z,15.90
2018-02-21T17:42:40.692Z,18.23
2018-02-21T17:45:09.031Z,16.10
2018-02-21T17:47:37.346Z,16.50
2018-02-21T17:50:05.492Z,15.47
2018-02-21T17:52:33.918Z,15.13
2018-02-21T17:55:02.418Z,14.83
2018-02-21T17:57:30.732Z,14.87
2018-02-21T17:59:59.194Z,15.37
2018-02-21T18:02:27.527Z,13.77
2018-02-21T18:04:55.848Z,14.40
2018-02-21T18:07:24.164Z,13.87
2018-02-21T18:09:52.292Z,14.27
2018-02-21T18:12:20.611Z,12.53
2018-02-21T18:14:48.898Z,12.33
2018-02-21T18:17:17.469Z,12.93
2018-02-21T18:19:45.783Z,12.77
2018-02-21T18:22:14.096Z,12.60
2018-02-21T18:24:42.461Z,12.00
2018-02-21T18:27:10.766Z,12.07
2018-02-21T18:29:39.074Z,11.70
2018-02-21T18:32:07.395Z,11.80
2018-02-21T18:34:35.695Z,13.27
2018-02-21T18:37:04.025Z,12.30
2018-02-21T18:39:32.442Z,11.50
2018-02-21T18:42:00.760Z,11.60
2018-02-21T18:44:29.122Z,10.90
2018-02-21T18:46:57.443Z,11.80
2018-02-21T18:49:25.735Z,10.83
2018-02-21T18:51:54.027Z,10.83
2018-02-21T18:54:22.392Z,10.47
2018-02-21T18:56:50.587Z,10.80
2018-02-21T18:59:18.885Z,9.77
2018-02-21T19:01:47.210Z,10.43
2018-02-21T19:04:15.524Z,10.50
2018-02-21T19:06:43.837Z,11.47
2018-02-21T19:09:13.921Z,10.07
2018-02-21T19:11:42.509Z,9.23
2018-02-21T19:14:11.593Z,8.90
2018-02-21T19:16:40.051Z,9.10
2018-02-21T19:19:08.764Z,9.17
2018-02-21T19:21:37.849Z,9.43
2018-02-21T19:24:07.271Z,8.90
2018-02-21T19:26:35.934Z,8.87
2018-02-21T19:29:04.233Z,10.27
2018-02-21T19:31:33.748Z,10.20
2018-02-21T19:34:02.422Z,9.37
2018-02-21T19:36:31.534Z,8.20
2018-02-21T19:39:00.152Z,9.40
2018-02-21T19:41:29.001Z,8.80
2018-02-21T19:43:57.348Z,9.17
2018-02-21T19:46:26.349Z,8.73
2018-02-21T19:48:55.137Z,8.43
2018-02-21T19:51:24.039Z,7.67
2018-02-21T19:53:54.321Z,8.37
2018-02-21T19:56:23.153Z,8.10
2018-02-21T19:58:52.630Z,7.83
2018-02-21T20:01:21.049Z,7.90
2018-02-21T20:03:49.359Z,7.60
2018-02-21T20:06:18.121Z,8.00
2018-02-21T20:08:46.965Z,7.70
2018-02-21T20:11:15.699Z,7.37
2018-02-21T20:13:44.411Z,7.20
2018-02-21T20:16:12.743Z,7.70
2018-02-21T20:18:41.338Z,6.80
2018-02-21T20:21:09.718Z,7.00
2018-02-21T20:23:38.361Z,7.40
2018-02-21T20:26:06.711Z,7.10
2018-02-21T20:28:35.035Z,8.47
2018-02-21T20:31:03.339Z,20.07
2018-02-21T20:33:31.630Z,7.90
2018-02-21T20:35:59.925Z,10.73
2018-02-21T20:38:28.552Z,6.03
2018-02-21T20:40:56.914Z,6.30
2018-02-21T20:43:25.221Z,14.17
2018-02-21T20:45:53.544Z,5.30
2018-02-21T20:48:21.856Z,6.57
2018-02-21T20:50:50.191Z,5.80
2018-02-21T20:53:18.492Z,6.00
2018-02-21T20:55:46.815Z,8.37
2018-02-21T20:58:15.109Z,6.20
2018-02-21T21:00:43.638Z,6.17
2018-02-21T21:03:11.946Z,6.67
2018-02-21T21:05:40.380Z,6.27
2018-02-21T21:08:08.773Z,6.00
2018-02-21T21:10:37.172Z,6.20
2018-02-21T21:13:05.552Z,7.13
2018-02-21T21:15:34.231Z,6.20
2018-02-21T21:18:02.543Z,5.83
2018-02-21T21:20:31.665Z,6.70
2018-02-21T21:22:59.966Z,8.73
2018-02-21T21:25:28.263Z,5.37
2018-02-21T21:27:56.561Z,5.77
2018-02-21T21:30:25.448Z,5.33
2018-02-21T21:32:54.786Z,5.37
2018-02-21T21:35:23.101Z,6.27
2018-02-21T21:37:51.426Z,4.70
2018-02-21T21:40:19.859Z,5.60
2018-02-21T21:42:48.217Z,5.17
2018-02-21T21:45:16.591Z,5.60
2018-02-21T21:47:45.041Z,4.60
2018-02-21T21:50:13.318Z,5.97
2018-02-21T21:52:41.607Z,4.50
2018-02-21T21:55:09.902Z,4.40
2018-02-21T21:57:38.221Z,4.60
2018-02-21T22:00:06.516Z,5.10
2018-02-21T22:02:34.868Z,4.30
2018-02-21T22:05:03.185Z,4.20
2018-02-21T22:07:31.517Z,4.10
2018-02-21T22:10:00.629Z,5.30
2018-02-21T22:12:28.928Z,5.23
2018-02-21T22:14:57.438Z,4.40
2018-02-21T22:17:25.731Z,4.33
2018-02-21T22:19:54.035Z,3.80
2018-02-21T22:22:22.327Z,4.30
2018-02-21T22:24:50.627Z,4.43
2018-02-21T22:27:18.973Z,5.07
2018-02-21T22:29:47.267Z,5.10
2018-02-21T22:32:15.423Z,4.70
2018-02-21T22:34:43.730Z,4.80
2018-02-21T22:37:12.030Z,4.80
2018-02-21T22:39:40.341Z,4.67
2018-02-21T22:42:08.642Z,4.50
2018-02-21T22:44:36.942Z,3.40
2018-02-21T22:47:05.241Z,4.00
2018-02-21T22:49:33.582Z,3.37
2018-02-21T22:52:01.872Z,3.57
2018-02-21T22:54:30.173Z,3.80
2018-02-21T22:56:58.484Z,3.90
2018-02-21T22:59:26.782Z,4.80
2018-02-21T23:01:55.077Z,4.37
2018-02-21T23:04:23.389Z,3.77
2018-02-21T23:06:51.702Z,7.50
2018-02-21T23:09:20.050Z,4.93
2018-02-21T23:11:48.344Z,3.47
2018-02-21T23:14:16.643Z,3.40
2018-02-21T23:16:44.941Z,12.30
2018-02-21T23:19:13.234Z,3.40
2018-02-21T23:21:41.550Z,2.90
2018-02-21T23:24:09.845Z,2.93
2018-02-21T23:26:38.131Z,4.10
2018-02-21T23:29:06.415Z,3.17
2018-02-21T23:31:34.724Z,4.27
2018-02-21T23:34:03.026Z,3.97
2018-02-21T23:36:31.344Z,4.27
2018-02-21T23:38:59.643Z,3.27
2018-02-21T23:41:27.961Z,3.97
2018-02-21T23:43:56.245Z,3.00
2018-02-21T23:46:24.545Z,2.70
2018-02-21T23:48:52.855Z,2.80
2018-02-21T23:51:21.152Z,2.90
2018-02-21T23:53:49.444Z,3.57
2018-02-21T23:56:17.742Z,2.70
2018-02-21T23:58:46.058Z,3.00
